Time;durP1;ratioP1;P1;durP2;ratioP2;P2;SDS_P1;SDS_P2;PMS_P1;PMS_P2;Temp;Humidity;BMP_temperature;BMP_pressure;BME280_temperature;BME280_humidity;BME280_pressure;Samples;Min_cycle;Max_cycle;Signal;HPM_P1;HPM_P2
2022/10/18 00:00:01;;;;;;;56.20;28.45;;;;;;;;;;6157187;28;20093;-76
2022/10/18 00:03:01;;;;;;;52.47;28.80;;;;;;;;;;6172045;28;20022;-75
2022/10/18 00:06:01;;;;;;;56.15;29.73;;;;;;;;;;6172608;28;20023;-75
2022/10/18 00:09:01;;;;;;;55.92;30.65;;;;;;;;;;6172822;28;20056;-75
2022/10/18 00:12:02;;;;;;;57.03;29.98;;;;;;;;;;6172881;28;20077;-76
2022/10/18 00:15:03;;;;;;;49.92;28.90;;;;;;;;;;6171495;28;20471;-76
2022/10/18 00:18:03;;;;;;;53.38;31.33;;;;;;;;;;6171747;28;20015;-76
2022/10/18 00:21:09;;;;;;;58.77;32.17;;;;;;;;;;6173085;28;20031;-76
2022/10/18 00:24:09;;;;;;;60.70;30.98;;;;;;;;;;6167631;28;20023;-76
2022/10/18 00:27:10;;;;;;;65.38;32.78;;;;;;;;;;6174274;28;20037;-77
2022/10/18 00:30:10;;;;;;;59.95;34.58;;;;;;;;;;6154600;28;20386;-76
2022/10/18 00:33:11;;;;;;;63.33;34.00;;;;;;;;;;6184159;28;20054;-76
2022/10/18 00:36:12;;;;;;;61.72;34.92;;;;;;;;;;6170763;28;20418;-76
2022/10/18 00:39:16;;;;;;;64.53;36.67;;;;;;;;;;6178737;28;20023;-76
2022/10/18 00:42:17;;;;;;;70.90;35.35;;;;;;;;;;6155463;28;19995;-76
2022/10/18 00:45:20;;;;;;;61.90;33.57;;;;;;;;;;6160768;28;20073;-76
2022/10/18 00:48:20;;;;;;;63.47;30.70;;;;;;;;;;6177197;28;20023;-77
2022/10/18 00:51:21;;;;;;;55.90;28.23;;;;;;;;;;6197888;28;20025;-77
2022/10/18 00:54:22;;;;;;;47.33;27.90;;;;;;;;;;6177862;28;20026;-77
2022/10/18 00:57:23;;;;;;;51.20;26.77;;;;;;;;;;6176944;28;20026;-77
2022/10/18 01:00:23;;;;;;;45.30;24.70;;;;;;;;;;6176527;28;20387;-77
2022/10/18 01:03:23;;;;;;;45.10;22.55;;;;;;;;;;6176900;28;20011;-77
2022/10/18 01:06:24;;;;;;;45.80;24.87;;;;;;;;;;6176863;28;20066;-77
2022/10/18 01:09:38;;;;;;;42.75;25.13;;;;;;;;;;6175806;28;20019;-77
2022/10/18 01:12:41;;;;;;;37.13;21.55;;;;;;;;;;6172685;28;20034;-77
2022/10/18 01:15:41;;;;;;;37.88;21.83;;;;;;;;;;6178020;28;20018;-76
2022/10/18 01:18:52;;;;;;;50.75;23.13;;;;;;;;;;6176500;28;20007;-75
2022/10/18 01:21:52;;;;;;;41.55;23.20;;;;;;;;;;6174498;28;20023;-76
2022/10/18 01:25:31;;;;;;;39.77;23.03;;;;;;;;;;6177379;28;20022;-76
2022/10/18 01:28:46;;;;;;;43.50;21.77;;;;;;;;;;6087119;29;20363;-76
2022/10/18 01:31:49;;;;;;;43.92;24.42;;;;;;;;;;6087435;28;20029;-76
2022/10/18 01:34:51;;;;;;;45.97;26.63;;;;;;;;;;6175900;28;20026;-76
2022/10/18 01:37:54;;;;;;;46.35;26.42;;;;;;;;;;6176186;28;20019;-76
2022/10/18 01:40:55;;;;;;;49.65;27.80;;;;;;;;;;6175676;28;20158;-76
2022/10/18 01:43:57;;;;;;;51.15;25.83;;;;;;;;;;6158091;28;20303;-76
2022/10/18 01:46:57;;;;;;;45.58;25.13;;;;;;;;;;6177554;28;20115;-77
2022/10/18 01:49:59;;;;;;;53.10;25.77;;;;;;;;;;6159580;28;20059;-77
2022/10/18 01:52:59;;;;;;;47.38;25.42;;;;;;;;;;6189955;28;20039;-77
2022/10/18 01:56:08;;;;;;;49.92;25.67;;;;;;;;;;6176067;28;20491;-76
2022/10/18 01:59:20;;;;;;;41.60;24.45;;;;;;;;;;6174371;28;20018;-76
2022/10/18 02:02:20;;;;;;;47.25;27.00;;;;;;;;;;6166816;28;20126;-76
2022/10/18 02:05:39;;;;;;;49.37;24.73;;;;;;;;;;6156543;28;20091;-76
2022/10/18 02:08:57;;;;;;;40.50;24.13;;;;;;;;;;6199043;28;20773;-77
2022/10/18 02:11:58;;;;;;;43.38;24.65;;;;;;;;;;6184366;28;20050;-77
2022/10/18 02:15:00;;;;;;;47.90;26.90;;;;;;;;;;6176272;28;20023;-77
2022/10/18 02:18:02;;;;;;;52.65;27.40;;;;;;;;;;6175847;28;20027;-77
2022/10/18 02:21:04;;;;;;;42.53;24.17;;;;;;;;;;6176195;28;20086;-76
2022/10/18 02:24:05;;;;;;;42.63;23.35;;;;;;;;;;6175866;28;20069;-78
2022/10/18 02:27:05;;;;;;;40.10;22.80;;;;;;;;;;6171491;28;20035;-77
2022/10/18 02:30:06;;;;;;;40.25;22.15;;;;;;;;;;6172779;28;20022;-77
2022/10/18 02:33:09;;;;;;;43.50;22.02;;;;;;;;;;6161273;28;20498;-77
2022/10/18 02:36:16;;;;;;;37.17;22.67;;;;;;;;;;6175818;28;20027;-77
2022/10/18 02:39:25;;;;;;;38.55;20.60;;;;;;;;;;6175834;28;20122;-77
2022/10/18 02:42:31;;;;;;;35.22;18.75;;;;;;;;;;6162837;28;20027;-77
2022/10/18 02:45:32;;;;;;;38.63;21.17;;;;;;;;;;6165579;28;20411;-77
2022/10/18 02:48:32;;;;;;;41.78;20.77;;;;;;;;;;6150795;29;20024;-77
2022/10/18 02:51:32;;;;;;;38.53;20.38;;;;;;;;;;6149048;28;20155;-77
2022/10/18 02:54:33;;;;;;;35.22;20.77;;;;;;;;;;6165142;28;20007;-77
2022/10/18 02:57:33;;;;;;;34.22;19.77;;;;;;;;;;6150050;28;20012;-77
2022/10/18 03:00:33;;;;;;;32.78;20.77;;;;;;;;;;6150138;29;20022;-77
2022/10/18 03:03:34;;;;;;;39.92;22.42;;;;;;;;;;6151024;29;20011;-77
2022/10/18 03:06:34;;;;;;;37.08;22.05;;;;;;;;;;6149039;28;20022;-77
2022/10/18 03:09:34;;;;;;;34.92;19.73;;;;;;;;;;6150165;29;20034;-77
2022/10/18 03:12:34;;;;;;;36.08;19.85;;;;;;;;;;6140525;28;20039;-77
2022/10/18 03:15:35;;;;;;;37.65;23.80;;;;;;;;;;6150407;28;20015;-76
2022/10/18 03:18:35;;;;;;;26.48;15.63;;;;;;;;;;6149795;28;20023;-76
2022/10/18 03:21:35;;;;;;;32.63;20.90;;;;;;;;;;6150292;28;20041;-76
2022/10/18 03:24:35;;;;;;;35.67;19.95;;;;;;;;;;6149903;29;20318;-76
2022/10/18 03:27:35;;;;;;;35.83;19.07;;;;;;;;;;6158509;28;20090;-76
2022/10/18 03:30:37;;;;;;;32.40;18.50;;;;;;;;;;6147931;28;20263;-76
2022/10/18 03:33:37;;;;;;;32.72;17.10;;;;;;;;;;6167177;28;20342;-76
2022/10/18 03:36:40;;;;;;;32.08;18.17;;;;;;;;;;6159088;28;20011;-78
2022/10/18 03:39:40;;;;;;;33.42;19.77;;;;;;;;;;6148647;28;20038;-78
2022/10/18 03:42:40;;;;;;;31.35;18.50;;;;;;;;;;6146561;28;20066;-78
2022/10/18 03:45:40;;;;;;;39.13;20.63;;;;;;;;;;6147893;28;20394;-77
2022/10/18 03:48:40;;;;;;;32.63;17.93;;;;;;;;;;6147217;29;20309;-77
2022/10/18 03:51:41;;;;;;;38.27;19.43;;;;;;;;;;6149383;29;20377;-76
2022/10/18 03:54:41;;;;;;;29.13;17.20;;;;;;;;;;6159042;28;20261;-76
2022/10/18 03:57:41;;;;;;;30.35;17.25;;;;;;;;;;6152267;28;20259;-76
2022/10/18 04:00:41;;;;;;;32.03;18.03;;;;;;;;;;6144902;28;20019;-75
2022/10/18 04:03:42;;;;;;;32.93;18.37;;;;;;;;;;6150095;28;20263;-75
2022/10/18 04:06:42;;;;;;;31.95;16.38;;;;;;;;;;6149276;29;20259;-75
2022/10/18 04:09:42;;;;;;;26.75;15.18;;;;;;;;;;6147137;28;20015;-75
2022/10/18 04:12:42;;;;;;;34.63;16.95;;;;;;;;;;6164365;28;20018;-76
2022/10/18 04:15:42;;;;;;;25.27;15.93;;;;;;;;;;6169520;28;20099;-76
2022/10/18 04:18:43;;;;;;;30.02;15.85;;;;;;;;;;6148072;28;20015;-76
2022/10/18 04:21:43;;;;;;;33.78;17.40;;;;;;;;;;6158710;28;20364;-75
2022/10/18 04:24:43;;;;;;;30.87;17.53;;;;;;;;;;6149543;28;20086;-75
2022/10/18 04:27:43;;;;;;;30.27;16.93;;;;;;;;;;6163153;28;20314;-76
2022/10/18 04:30:48;;;;;;;31.97;16.47;;;;;;;;;;6158365;28;20259;-76
2022/10/18 04:33:48;;;;;;;32.63;16.40;;;;;;;;;;6162052;28;20270;-75
2022/10/18 04:36:48;;;;;;;24.27;13.50;;;;;;;;;;6147963;29;20032;-76
2022/10/18 04:39:48;;;;;;;29.30;15.10;;;;;;;;;;6148827;29;20266;-75
2022/10/18 04:42:49;;;;;;;25.77;16.92;;;;;;;;;;6142355;29;20035;-77
2022/10/18 04:45:50;;;;;;;29.77;17.02;;;;;;;;;;6151238;28;20598;-75
2022/10/18 04:48:50;;;;;;;28.98;16.48;;;;;;;;;;6164633;28;20054;-76
2022/10/18 04:51:50;;;;;;;21.70;13.40;;;;;;;;;;6166731;28;20027;-76
2022/10/18 04:54:50;;;;;;;29.37;16.90;;;;;;;;;;6159212;28;20274;-76
2022/10/18 04:57:51;;;;;;;28.17;15.37;;;;;;;;;;6159782;28;20277;-77
2022/10/18 05:00:52;;;;;;;24.67;15.75;;;;;;;;;;6158766;28;20344;-77
2022/10/18 05:03:53;;;;;;;26.42;16.70;;;;;;;;;;6166440;28;20475;-77
2022/10/18 05:06:53;;;;;;;39.10;17.20;;;;;;;;;;6162086;28;20082;-77
2022/10/18 05:09:53;;;;;;;27.63;15.13;;;;;;;;;;6164081;28;20042;-77
2022/10/18 05:12:53;;;;;;;31.10;16.02;;;;;;;;;;6160020;28;20102;-77
2022/10/18 05:15:54;;;;;;;31.23;16.75;;;;;;;;;;6153445;28;20047;-77
2022/10/18 05:18:54;;;;;;;26.92;15.82;;;;;;;;;;6160181;28;20043;-77
2022/10/18 05:21:54;;;;;;;26.77;14.93;;;;;;;;;;6162729;28;20037;-76
2022/10/18 05:24:55;;;;;;;33.60;15.88;;;;;;;;;;6168789;28;20626;-76
2022/10/18 05:27:55;;;;;;;29.40;17.38;;;;;;;;;;6169067;28;20078;-76
2022/10/18 05:30:59;;;;;;;30.10;16.05;;;;;;;;;;6166501;28;20031;-76
2022/10/18 05:34:00;;;;;;;27.73;15.90;;;;;;;;;;6162967;28;20390;-76
2022/10/18 05:37:01;;;;;;;36.67;17.97;;;;;;;;;;6170078;28;20025;-76
2022/10/18 05:40:01;;;;;;;23.63;14.55;;;;;;;;;;6163751;28;20011;-76
2022/10/18 05:43:01;;;;;;;25.27;16.50;;;;;;;;;;6173532;28;20030;-76
2022/10/18 05:46:03;;;;;;;25.00;15.15;;;;;;;;;;6164102;28;20043;-76
2022/10/18 05:49:03;;;;;;;23.70;13.75;;;;;;;;;;6158126;28;20054;-76
2022/10/18 05:52:03;;;;;;;27.83;13.87;;;;;;;;;;6170268;28;20027;-76
2022/10/18 05:55:04;;;;;;;24.20;13.43;;;;;;;;;;6164717;28;20142;-76
2022/10/18 05:58:04;;;;;;;21.43;12.63;;;;;;;;;;6170974;28;20106;-76
2022/10/18 06:01:05;;;;;;;23.83;13.83;;;;;;;;;;6164727;28;20050;-76
2022/10/18 06:04:05;;;;;;;21.57;13.07;;;;;;;;;;6163979;28;20395;-76
2022/10/18 06:07:09;;;;;;;16.77;11.77;;;;;;;;;;6171480;28;20022;-76
2022/10/18 06:10:10;;;;;;;20.30;12.68;;;;;;;;;;6174159;28;20019;-76
2022/10/18 06:13:10;;;;;;;16.77;10.83;;;;;;;;;;6162401;28;20019;-76
2022/10/18 06:16:11;;;;;;;19.40;11.00;;;;;;;;;;6172735;28;20407;-77
2022/10/18 06:19:11;;;;;;;24.63;12.60;;;;;;;;;;6174348;28;20023;-77
2022/10/18 06:22:11;;;;;;;20.60;12.63;;;;;;;;;;6174865;28;20439;-77
2022/10/18 06:25:12;;;;;;;18.63;11.17;;;;;;;;;;6171738;28;20490;-77
2022/10/18 06:28:12;;;;;;;18.43;11.73;;;;;;;;;;6174883;28;20027;-76
2022/10/18 06:31:12;;;;;;;15.30;10.80;;;;;;;;;;6170816;28;20062;-77
2022/10/18 06:34:13;;;;;;;16.17;10.53;;;;;;;;;;6151636;28;20116;-77
2022/10/18 06:37:13;;;;;;;19.73;11.00;;;;;;;;;;6170608;28;20074;-76
2022/10/18 06:40:13;;;;;;;18.57;10.00;;;;;;;;;;6170770;28;20030;-76
2022/10/18 06:43:13;;;;;;;17.33;11.10;;;;;;;;;;6165318;28;20042;-77
2022/10/18 06:46:14;;;;;;;20.43;10.13;;;;;;;;;;6159912;28;20038;-76
2022/10/18 06:49:14;;;;;;;23.07;13.30;;;;;;;;;;6174815;28;20098;-77
2022/10/18 06:52:21;;;;;;;19.77;12.30;;;;;;;;;;6173723;28;20105;-76
2022/10/18 06:55:21;;;;;;;19.48;10.80;;;;;;;;;;6157736;28;20619;-76
2022/10/18 06:58:21;;;;;;;22.07;11.13;;;;;;;;;;6175107;28;20018;-76
2022/10/18 07:01:22;;;;;;;20.43;9.23;;;;;;;;;;6174815;28;20022;-75
2022/10/18 07:04:22;;;;;;;16.13;8.50;;;;;;;;;;6173232;28;20022;-75
2022/10/18 07:07:22;;;;;;;18.17;8.33;;;;;;;;;;6156111;28;20448;-75
2022/10/18 07:10:23;;;;;;;14.33;7.50;;;;;;;;;;6164137;28;20035;-76
2022/10/18 07:13:23;;;;;;;11.80;6.50;;;;;;;;;;6168613;28;20041;-76
2022/10/18 07:16:23;;;;;;;16.97;6.57;;;;;;;;;;6155260;28;20373;-76
2022/10/18 07:19:24;;;;;;;13.00;5.60;;;;;;;;;;6149535;28;20014;-76
2022/10/18 07:22:24;;;;;;;13.97;6.63;;;;;;;;;;6158347;28;20035;-75
2022/10/18 07:25:24;;;;;;;12.37;5.57;;;;;;;;;;6173251;28;20487;-75
2022/10/18 07:28:24;;;;;;;11.47;5.33;;;;;;;;;;6165506;28;20058;-75
2022/10/18 07:31:25;;;;;;;13.07;6.20;;;;;;;;;;6163493;28;20030;-74
2022/10/18 07:34:27;;;;;;;12.20;6.13;;;;;;;;;;6163605;28;20035;-76
2022/10/18 07:37:28;;;;;;;12.13;5.55;;;;;;;;;;6160624;28;20098;-76
2022/10/18 07:40:28;;;;;;;11.17;4.97;;;;;;;;;;6156773;28;20034;-76
2022/10/18 07:43:29;;;;;;;12.47;5.80;;;;;;;;;;6164083;28;20135;-75
2022/10/18 07:46:29;;;;;;;13.93;6.13;;;;;;;;;;6151974;28;20173;-76
2022/10/18 07:49:29;;;;;;;11.80;6.27;;;;;;;;;;6155928;28;20101;-75
2022/10/18 07:52:30;;;;;;;16.77;5.30;;;;;;;;;;6144043;28;20067;-75
2022/10/18 07:55:30;;;;;;;13.10;5.43;;;;;;;;;;6155627;28;20034;-75
2022/10/18 07:58:31;;;;;;;16.47;5.67;;;;;;;;;;6153241;28;20629;-75
2022/10/18 08:01:31;;;;;;;11.02;5.57;;;;;;;;;;6167005;28;20451;-75
2022/10/18 08:04:31;;;;;;;8.40;5.37;;;;;;;;;;6167921;28;20019;-75
2022/10/18 08:07:32;;;;;;;11.73;5.43;;;;;;;;;;6167056;28;20022;-75
2022/10/18 08:10:33;;;;;;;8.20;4.93;;;;;;;;;;6172475;28;20069;-76
2022/10/18 08:13:33;;;;;;;11.98;5.20;;;;;;;;;;6153388;28;20287;-75
2022/10/18 08:16:33;;;;;;;11.73;6.13;;;;;;;;;;6163773;28;20399;-75
2022/10/18 08:19:33;;;;;;;11.27;5.70;;;;;;;;;;6153978;28;20442;-74
2022/10/18 08:22:34;;;;;;;10.10;5.10;;;;;;;;;;6177638;28;20432;-74
2022/10/18 08:25:34;;;;;;;12.30;5.50;;;;;;;;;;6164126;28;20011;-74
2022/10/18 08:28:37;;;;;;;9.57;4.93;;;;;;;;;;6159819;28;20034;-73
2022/10/18 08:31:37;;;;;;;9.15;4.85;;;;;;;;;;6167815;28;20083;-75
2022/10/18 08:34:38;;;;;;;16.63;4.53;;;;;;;;;;6168437;28;20027;-74
2022/10/18 08:37:39;;;;;;;11.70;5.10;;;;;;;;;;6171851;28;20566;-75
2022/10/18 08:40:43;;;;;;;9.32;5.07;;;;;;;;;;6165980;28;20023;-74
2022/10/18 08:43:49;;;;;;;10.90;5.53;;;;;;;;;;6170674;28;20117;-74
2022/10/18 08:47:09;;;;;;;8.35;4.53;;;;;;;;;;6181517;28;20053;-74
2022/10/18 08:50:15;;;;;;;7.95;4.70;;;;;;;;;;6157082;28;20023;-74
2022/10/18 08:53:18;;;;;;;9.10;4.95;;;;;;;;;;6152033;28;20506;-74
2022/10/18 08:56:22;;;;;;;9.05;4.78;;;;;;;;;;6155968;28;20042;-74
2022/10/18 08:59:23;;;;;;;13.38;5.70;;;;;;;;;;6156210;28;20015;-74
2022/10/18 09:02:40;;;;;;;11.90;5.07;;;;;;;;;;6163971;28;20022;-74
2022/10/18 09:06:02;;;;;;;11.60;5.38;;;;;;;;;;6172104;28;20029;-74
2022/10/18 09:09:05;;;;;;;11.45;5.32;;;;;;;;;;6176987;28;20022;-74
2022/10/18 09:12:05;;;;;;;8.38;4.68;;;;;;;;;;6176872;28;20031;-74
2022/10/18 09:15:14;;;;;;;9.43;5.30;;;;;;;;;;6164341;28;20026;-74
2022/10/18 09:18:26;;;;;;;10.38;4.43;;;;;;;;;;6163579;28;20537;-75
2022/10/18 09:21:44;;;;;;;9.35;4.50;;;;;;;;;;6160752;28;20557;-75
2022/10/18 09:24:48;;;;;;;9.60;4.40;;;;;;;;;;6162449;28;20479;-75
2022/10/18 09:28:03;;;;;;;9.27;4.72;;;;;;;;;;6157584;28;20482;-75
2022/10/18 09:31:03;;;;;;;8.65;4.80;;;;;;;;;;6158365;28;20059;-75
2022/10/18 09:34:06;;;;;;;9.47;4.40;;;;;;;;;;6156941;28;20106;-74
2022/10/18 09:37:13;;;;;;;7.88;4.30;;;;;;;;;;6166191;28;20027;-74
2022/10/18 09:40:19;;;;;;;12.10;4.82;;;;;;;;;;6161141;28;20110;-74
2022/10/18 09:43:21;;;;;;;8.73;4.65;;;;;;;;;;6175324;28;20026;-74
2022/10/18 09:46:23;;;;;;;8.48;4.70;;;;;;;;;;6176285;28;20054;-74
2022/10/18 09:49:29;;;;;;;13.80;4.65;;;;;;;;;;6175928;28;20030;-74
2022/10/18 09:52:41;;;;;;;8.15;4.43;;;;;;;;;;6175113;28;20054;-74
2022/10/18 09:56:01;;;;;;;13.60;4.55;;;;;;;;;;6174764;28;20546;-74
2022/10/18 09:59:02;;;;;;;7.33;4.40;;;;;;;;;;6159858;28;20035;-74
2022/10/18 10:02:03;;;;;;;8.23;4.63;;;;;;;;;;6163865;28;20034;-74
2022/10/18 10:05:05;;;;;;;10.20;4.93;;;;;;;;;;6175307;28;20026;-75
2022/10/18 10:08:05;;;;;;;7.60;4.78;;;;;;;;;;6175519;28;20046;-75
2022/10/18 10:11:24;;;;;;;11.33;4.43;;;;;;;;;;6169457;28;20043;-74
2022/10/18 10:14:26;;;;;;;7.03;4.18;;;;;;;;;;6159338;28;20019;-74
2022/10/18 10:17:28;;;;;;;8.80;4.45;;;;;;;;;;6154813;28;20022;-74
2022/10/18 10:20:45;;;;;;;8.45;3.92;;;;;;;;;;6159714;28;20515;-75
2022/10/18 10:23:50;;;;;;;11.45;5.00;;;;;;;;;;6159918;28;20506;-74
2022/10/18 10:26:57;;;;;;;11.95;5.20;;;;;;;;;;6165089;28;20031;-75
2022/10/18 10:29:58;;;;;;;8.80;4.60;;;;;;;;;;6158923;28;20106;-74
2022/10/18 10:32:59;;;;;;;12.27;5.72;;;;;;;;;;6157149;28;20030;-74
2022/10/18 10:36:00;;;;;;;8.53;4.83;;;;;;;;;;6168248;28;20047;-74
2022/10/18 10:39:20;;;;;;;10.63;5.25;;;;;;;;;;6161202;28;20015;-75
2022/10/18 10:42:20;;;;;;;6.93;4.38;;;;;;;;;;6159845;28;20050;-74
2022/10/18 10:45:21;;;;;;;12.33;5.07;;;;;;;;;;6171920;28;20075;-73
2022/10/18 10:48:22;;;;;;;17.27;5.78;;;;;;;;;;6168796;28;20069;-74
2022/10/18 10:51:22;;;;;;;;;;;;;;;;;;6167924;28;20568;-74
2022/10/18 10:54:24;;;;;;;7.70;4.38;;;;;;;;;;6169393;28;19964;-75
2022/10/18 10:57:24;;;;;;;;;;;;;;;;;;6167477;28;20019;-74
2022/10/18 11:00:43;;;;;;;11.50;4.93;;;;;;;;;;6173281;28;19913;-74
2022/10/18 11:03:45;;;;;;;8.00;4.45;;;;;;;;;;6171197;28;20094;-74
2022/10/18 11:06:48;;;;;;;7.30;4.25;;;;;;;;;;6170748;28;20465;-73
2022/10/18 11:09:57;;;;;;;11.80;4.53;;;;;;;;;;6170963;28;20486;-76
2022/10/18 11:13:17;;;;;;;10.50;4.80;;;;;;;;;;6172372;28;20478;-74
2022/10/18 11:16:23;;;;;;;6.35;3.75;;;;;;;;;;6169414;28;20018;-75
2022/10/18 11:19:44;;;;;;;6.93;3.85;;;;;;;;;;6169101;28;20023;-74
2022/10/18 11:22:59;;;;;;;8.07;3.67;;;;;;;;;;6124994;28;20031;-74
2022/10/18 11:26:02;;;;;;;7.05;3.67;;;;;;;;;;6158887;28;20171;-74
2022/10/18 11:29:03;;;;;;;12.13;4.03;;;;;;;;;;6153270;28;20035;-75
2022/10/18 11:32:06;;;;;;;8.40;4.90;;;;;;;;;;6169917;28;20018;-75
2022/10/18 11:35:39;;;;;;;12.27;4.22;;;;;;;;;;6168890;28;20484;-74
2022/10/18 11:38:58;;;;;;;8.75;3.83;;;;;;;;;;6139554;28;20566;-74
2022/10/18 11:42:06;;;;;;;8.27;4.85;;;;;;;;;;6167644;28;20391;-74
2022/10/18 11:45:12;;;;;;;10.93;5.65;;;;;;;;;;6152972;28;20046;-74
2022/10/18 11:48:15;;;;;;;12.27;4.82;;;;;;;;;;6161406;28;20122;-74
2022/10/18 11:51:21;;;;;;;8.32;4.15;;;;;;;;;;6155820;28;20099;-74
2022/10/18 11:54:32;;;;;;;7.28;4.07;;;;;;;;;;6151530;28;20089;-74
2022/10/18 11:57:33;;;;;;;;;;;;;;;;;;6155346;28;20014;-74
2022/10/18 12:00:39;;;;;;;12.32;4.95;;;;;;;;;;6158024;28;19914;-74
2022/10/18 12:03:56;;;;;;;7.90;4.25;;;;;;;;;;6160950;28;20023;-74
2022/10/18 12:06:57;;;;;;;7.35;3.58;;;;;;;;;;6165522;28;20027;-74
2022/10/18 12:09:59;;;;;;;7.35;3.92;;;;;;;;;;6170463;28;20023;-74
2022/10/18 12:13:04;;;;;;;9.10;4.22;;;;;;;;;;6166819;28;20023;-74
2022/10/18 12:16:05;;;;;;;6.63;3.92;;;;;;;;;;6155179;28;20023;-75
2022/10/18 12:19:11;;;;;;;7.53;4.70;;;;;;;;;;6155411;28;20756;-75
2022/10/18 12:22:15;;;;;;;7.20;3.67;;;;;;;;;;6167980;28;20372;-75
2022/10/18 12:25:16;;;;;;;10.80;4.75;;;;;;;;;;6163936;28;20487;-75
2022/10/18 12:28:23;;;;;;;7.75;3.78;;;;;;;;;;6162834;28;20018;-75
2022/10/18 12:31:33;;;;;;;7.95;4.70;;;;;;;;;;6164829;28;20427;-75
2022/10/18 12:34:37;;;;;;;8.93;4.28;;;;;;;;;;6164952;28;20304;-75
2022/10/18 12:37:56;;;;;;;7.68;3.55;;;;;;;;;;6163084;28;20011;-75
2022/10/18 12:40:57;;;;;;;9.45;3.85;;;;;;;;;;6160111;28;20037;-76
2022/10/18 12:43:57;;;;;;;;;;;;;;;;;;6162665;28;20021;-75
2022/10/18 12:46:59;;;;;;;8.93;3.50;;;;;;;;;;6155352;28;19921;-74
2022/10/18 12:50:01;;;;;;;9.30;4.10;;;;;;;;;;6155438;28;20027;-75
2022/10/18 12:53:01;;;;;;;10.45;4.30;;;;;;;;;;6158310;28;20550;-75
2022/10/18 12:56:20;;;;;;;5.93;3.97;;;;;;;;;;6164669;28;20027;-74
2022/10/18 12:59:25;;;;;;;11.45;3.65;;;;;;;;;;6163615;28;20475;-74
2022/10/18 13:02:26;;;;;;;5.18;3.38;;;;;;;;;;6170837;28;20483;-74
2022/10/18 13:05:45;;;;;;;13.20;4.25;;;;;;;;;;6148244;28;20039;-74
2022/10/18 13:08:47;;;;;;;8.15;4.20;;;;;;;;;;6163747;28;20033;-74
2022/10/18 13:11:47;;;;;;;6.18;3.95;;;;;;;;;;6169479;28;20094;-74
2022/10/18 13:15:07;;;;;;;6.97;4.53;;;;;;;;;;6164756;28;20386;-74
2022/10/18 13:18:20;;;;;;;7.90;4.60;;;;;;;;;;6162433;28;20031;-74
2022/10/18 13:21:31;;;;;;;7.43;4.30;;;;;;;;;;6165338;28;20024;-75
2022/10/18 13:24:37;;;;;;;9.85;4.97;;;;;;;;;;6136051;28;20027;-73
2022/10/18 13:27:43;;;;;;;10.48;4.93;;;;;;;;;;6158500;28;20506;-75
2022/10/18 13:30:51;;;;;;;11.27;5.68;;;;;;;;;;6153262;28;20027;-75
2022/10/18 13:33:51;;;;;;;11.45;4.97;;;;;;;;;;6156265;28;20066;-75
2022/10/18 13:36:59;;;;;;;12.40;5.70;;;;;;;;;;6156883;28;20023;-75
2022/10/18 13:40:22;;;;;;;14.60;5.18;;;;;;;;;;6165048;28;20015;-75
2022/10/18 13:43:41;;;;;;;10.80;5.68;;;;;;;;;;6169154;28;20035;-75
2022/10/18 13:46:41;;;;;;;12.50;5.55;;;;;;;;;;6169879;28;20050;-76
2022/10/18 13:49:54;;;;;;;8.90;5.10;;;;;;;;;;6171783;28;20037;-75
2022/10/18 13:53:24;;;;;;;11.77;5.25;;;;;;;;;;6161996;28;20089;-75
2022/10/18 13:56:31;;;;;;;10.95;5.32;;;;;;;;;;6156906;28;20035;-75
2022/10/18 13:59:39;;;;;;;15.07;5.00;;;;;;;;;;6173488;28;20019;-74
2022/10/18 14:02:58;;;;;;;11.98;5.88;;;;;;;;;;6142339;28;20031;-74
2022/10/18 14:06:05;;;;;;;9.77;5.50;;;;;;;;;;6159925;28;20151;-76
2022/10/18 14:09:10;;;;;;;12.25;5.50;;;;;;;;;;6162331;28;20428;-75
2022/10/18 14:12:19;;;;;;;11.48;5.95;;;;;;;;;;6162271;28;20054;-75
2022/10/18 14:15:23;;;;;;;11.85;6.05;;;;;;;;;;6160640;28;20030;-74
2022/10/18 14:18:29;;;;;;;13.73;5.50;;;;;;;;;;6160458;28;20019;-74
2022/10/18 14:21:33;;;;;;;10.20;5.85;;;;;;;;;;6161331;28;20026;-75
2022/10/18 14:24:34;;;;;;;16.10;5.95;;;;;;;;;;6173020;28;20023;-74
2022/10/18 14:27:35;;;;;;;16.03;7.67;;;;;;;;;;6166197;28;20026;-77
2022/10/18 14:30:36;;;;;;;10.65;5.88;;;;;;;;;;6165956;28;20537;-74
2022/10/18 14:33:45;;;;;;;11.30;5.73;;;;;;;;;;6173732;28;20027;-74
2022/10/18 14:36:47;;;;;;;13.52;4.95;;;;;;;;;;6174099;28;20027;-74
2022/10/18 14:39:47;;;;;;;12.60;5.28;;;;;;;;;;6164672;28;20115;-74
2022/10/18 14:42:47;;;;;;;16.70;6.00;;;;;;;;;;6159821;28;20031;-74
2022/10/18 14:45:47;;;;;;;10.27;4.70;;;;;;;;;;6160023;28;20039;-74
2022/10/18 14:48:54;;;;;;;17.43;6.37;;;;;;;;;;6160930;28;20490;-74
2022/10/18 14:51:55;;;;;;;11.25;5.38;;;;;;;;;;6158226;28;20042;-75
2022/10/18 14:54:56;;;;;;;11.80;6.00;;;;;;;;;;6161322;28;20027;-75
2022/10/18 14:57:57;;;;;;;8.00;4.57;;;;;;;;;;6144890;28;20050;-74
2022/10/18 15:00:57;;;;;;;14.40;6.43;;;;;;;;;;6163150;28;20094;-74
2022/10/18 15:03:59;;;;;;;10.23;5.93;;;;;;;;;;6158510;28;20027;-74
2022/10/18 15:07:03;;;;;;;16.17;5.45;;;;;;;;;;6157663;28;20078;-74
2022/10/18 15:10:05;;;;;;;13.77;6.35;;;;;;;;;;6162291;28;20400;-74
2022/10/18 15:13:05;;;;;;;12.10;7.10;;;;;;;;;;6162099;28;20029;-74
2022/10/18 15:16:05;;;;;;;11.80;6.00;;;;;;;;;;6159669;28;20023;-74
2022/10/18 15:19:14;;;;;;;14.97;7.00;;;;;;;;;;6152979;28;20042;-74
2022/10/18 15:22:21;;;;;;;13.35;7.88;;;;;;;;;;6158311;28;20066;-74
2022/10/18 15:25:29;;;;;;;16.63;7.72;;;;;;;;;;6160981;28;20410;-74
2022/10/18 15:28:38;;;;;;;18.42;7.97;;;;;;;;;;6165570;28;20558;-74
2022/10/18 15:31:41;;;;;;;16.50;8.05;;;;;;;;;;6162916;28;20070;-74
2022/10/18 15:34:42;;;;;;;15.93;8.00;;;;;;;;;;6161256;28;20379;-74
2022/10/18 15:37:46;;;;;;;15.30;9.23;;;;;;;;;;6159683;28;20037;-74
2022/10/18 15:40:46;;;;;;;15.60;8.27;;;;;;;;;;6154063;28;20139;-74
2022/10/18 15:43:47;;;;;;;16.27;8.63;;;;;;;;;;6162810;28;20091;-75
2022/10/18 15:46:48;;;;;;;15.55;8.55;;;;;;;;;;6166809;28;20061;-74
2022/10/18 15:49:49;;;;;;;17.48;9.82;;;;;;;;;;6172527;28;20031;-74
2022/10/18 15:52:50;;;;;;;;;;;;;;;;;;6172227;28;20030;-74
2022/10/18 15:55:52;;;;;;;23.08;10.82;;;;;;;;;;6172716;28;19925;-74
2022/10/18 15:58:54;;;;;;;26.90;12.95;;;;;;;;;;6164214;28;20022;-74
2022/10/18 16:01:54;;;;;;;25.70;11.20;;;;;;;;;;6158933;28;20038;-73
2022/10/18 16:04:54;;;;;;;25.87;12.97;;;;;;;;;;6159931;28;20030;-74
2022/10/18 16:07:54;;;;;;;25.37;12.53;;;;;;;;;;6159257;28;20030;-74
2022/10/18 16:10:56;;;;;;;20.17;11.17;;;;;;;;;;6164841;28;20031;-74
2022/10/18 16:13:56;;;;;;;22.02;12.50;;;;;;;;;;6164526;28;20472;-74
2022/10/18 16:17:01;;;;;;;28.33;13.45;;;;;;;;;;6152081;28;20019;-74
2022/10/18 16:20:03;;;;;;;25.85;13.85;;;;;;;;;;6170433;28;20046;-74
2022/10/18 16:23:08;;;;;;;26.40;12.32;;;;;;;;;;6160775;28;20038;-74
2022/10/18 16:26:10;;;;;;;24.15;11.35;;;;;;;;;;6157793;28;20053;-74
2022/10/18 16:29:10;;;;;;;;;;;;;;;;;;6159262;28;20066;-74
2022/10/18 16:32:10;;;;;;;25.08;12.90;;;;;;;;;;6165151;28;19914;-75
2022/10/18 16:35:11;;;;;;;20.73;10.03;;;;;;;;;;6171257;28;20011;-75
2022/10/18 16:38:20;;;;;;;16.87;9.83;;;;;;;;;;6170704;28;20074;-76
2022/10/18 16:41:21;;;;;;;20.42;9.13;;;;;;;;;;6166081;28;20019;-76
2022/10/18 16:44:21;;;;;;;18.23;10.00;;;;;;;;;;6145020;28;20074;-75
2022/10/18 16:47:21;;;;;;;21.10;9.13;;;;;;;;;;6171614;28;20015;-75
2022/10/18 16:50:21;;;;;;;15.82;8.57;;;;;;;;;;6182356;28;20028;-75
2022/10/18 16:53:22;;;;;;;17.17;9.53;;;;;;;;;;6158611;28;20126;-75
2022/10/18 16:56:30;;;;;;;17.53;8.90;;;;;;;;;;6171124;28;20061;-75
2022/10/18 16:59:30;;;;;;;18.38;10.90;;;;;;;;;;6150249;28;20106;-75
2022/10/18 17:02:30;;;;;;;19.20;10.63;;;;;;;;;;6159065;28;20372;-75
2022/10/18 17:05:31;;;;;;;17.63;11.33;;;;;;;;;;6152726;28;20088;-75
2022/10/18 17:08:31;;;;;;;21.80;10.77;;;;;;;;;;6154610;28;20015;-75
2022/10/18 17:11:31;;;;;;;22.47;11.33;;;;;;;;;;6163284;28;20027;-75
2022/10/18 17:14:35;;;;;;;21.70;12.20;;;;;;;;;;6163516;28;20019;-75
2022/10/18 17:17:36;;;;;;;22.70;11.13;;;;;;;;;;6162649;28;20077;-75
2022/10/18 17:20:36;;;;;;;18.60;10.67;;;;;;;;;;6171778;28;20035;-75
2022/10/18 17:23:36;;;;;;;19.93;10.90;;;;;;;;;;6171090;28;20030;-76
2022/10/18 17:26:36;;;;;;;18.73;11.32;;;;;;;;;;6170772;28;20023;-75
2022/10/18 17:29:36;;;;;;;17.30;9.73;;;;;;;;;;6171390;28;20541;-75
2022/10/18 17:32:37;;;;;;;20.53;10.50;;;;;;;;;;6152115;28;20034;-75
2022/10/18 17:35:37;;;;;;;14.07;9.30;;;;;;;;;;6162247;28;20030;-73
2022/10/18 17:38:37;;;;;;;20.00;10.47;;;;;;;;;;6172718;28;20045;-74
2022/10/18 17:41:37;;;;;;;17.47;10.20;;;;;;;;;;6173067;28;20391;-74
2022/10/18 17:44:38;;;;;;;18.07;10.33;;;;;;;;;;6157929;28;20065;-74
2022/10/18 17:47:38;;;;;;;17.40;10.17;;;;;;;;;;6169391;28;20506;-74
2022/10/18 17:50:41;;;;;;;20.23;10.05;;;;;;;;;;6159576;28;20113;-74
2022/10/18 17:53:41;;;;;;;20.95;11.32;;;;;;;;;;6164924;28;20063;-73
2022/10/18 17:56:42;;;;;;;18.53;10.10;;;;;;;;;;6157330;28;20034;-74
2022/10/18 17:59:42;;;;;;;21.37;12.07;;;;;;;;;;6174479;28;20335;-74